Villa Park, California
Current Conditions -  °F | °C
As of 6:53 PM on Wednesday 22 Oct 2014 (Local Time) from KSNA Reporting Station
Scattered Clouds Scattered Clouds  
Wind Chill: 74°   Ceiling: Unl
Heat Index: 74°   Visibility: 10mi
Dew Point: 63°   Wind: 5mph
Humidity: 68%   Direction: 220°SW
Pressure: 29.91"   Gusts: NA
Location:  33.81°N, 117.82°W
Report Text: KSNA 230153Z 22004KT 10SM SCT330 23/17 A2991 RMK AO2 SLP127 T02330172
Loading
Personal Weather Stations






























Interactive Weather Map
Tropical Storm Tracking
New forecast layout! Learn more

10-Day Weather Forecast

Advertisements
Track Severe Weather on mobile